sensor_id;sensor_type;location;lat;lon;timestamp;temperature;humidity
1129;DHT22;553;51.038;7.216;2023-07-20T00:00:04;18.50;96.90
1129;DHT22;553;51.038;7.216;2023-07-20T00:02:38;18.40;97.20
1129;DHT22;553;51.038;7.216;2023-07-20T00:05:05;18.30;97.40
1129;DHT22;553;51.038;7.216;2023-07-20T00:07:32;18.30;97.60
1129;DHT22;553;51.038;7.216;2023-07-20T00:09:59;18.30;97.60
1129;DHT22;553;51.038;7.216;2023-07-20T00:12:26;18.30;97.80
1129;DHT22;553;51.038;7.216;2023-07-20T00:14:53;18.30;97.80
1129;DHT22;553;51.038;7.216;2023-07-20T00:17:20;18.30;97.80
1129;DHT22;553;51.038;7.216;2023-07-20T00:19:47;18.30;97.60
1129;DHT22;553;51.038;7.216;2023-07-20T00:22:14;18.30;97.80
1129;DHT22;553;51.038;7.216;2023-07-20T00:24:41;18.30;97.80
1129;DHT22;553;51.038;7.216;2023-07-20T00:27:07;18.20;98.20
1129;DHT22;553;51.038;7.216;2023-07-20T00:29:34;18.20;98.30
1129;DHT22;553;51.038;7.216;2023-07-20T00:32:02;18.00;98.70
1129;DHT22;553;51.038;7.216;2023-07-20T00:34:31;18.00;99.00
1129;DHT22;553;51.038;7.216;2023-07-20T00:36:58;18.00;99.00
1129;DHT22;553;51.038;7.216;2023-07-20T00:39:25;18.00;99.00
1129;DHT22;553;51.038;7.216;2023-07-20T00:41:51;18.00;99.20
1129;DHT22;553;51.038;7.216;2023-07-20T00:44:18;18.00;99.00
1129;DHT22;553;51.038;7.216;2023-07-20T00:46:45;17.90;99.30
1129;DHT22;553;51.038;7.216;2023-07-20T00:49:13;17.90;99.60
1129;DHT22;553;51.038;7.216;2023-07-20T00:51:41;17.90;99.70
1129;DHT22;553;51.038;7.216;2023-07-20T00:54:08;17.90;99.90
1129;DHT22;553;51.038;7.216;2023-07-20T00:56:36;17.90;99.70
1129;DHT22;553;51.038;7.216;2023-07-20T00:59:04;17.90;99.60
1129;DHT22;553;51.038;7.216;2023-07-20T01:01:32;17.90;99.60
1129;DHT22;553;51.038;7.216;2023-07-20T01:03:59;17.90;99.90
1129;DHT22;553;51.038;7.216;2023-07-20T01:06:29;17.80;99.90
1129;DHT22;553;51.038;7.216;2023-07-20T01:09:01;17.90;99.90
1129;DHT22;553;51.038;7.216;2023-07-20T01:14:06;17.90;99.90
1129;DHT22;553;51.038;7.216;2023-07-20T01:16:33;17.80;99.90
1129;DHT22;553;51.038;7.216;2023-07-20T01:19:00;17.80;99.90
1129;DHT22;553;51.038;7.216;2023-07-20T01:21:51;17.80;99.90
1129;DHT22;553;51.038;7.216;2023-07-20T01:32:26;17.50;99.90
1129;DHT22;553;51.038;7.216;2023-07-20T01:34:55;17.30;99.90
1129;DHT22;553;51.038;7.216;2023-07-20T01:37:24;17.30;99.90
1129;DHT22;553;51.038;7.216;2023-07-20T01:39:54;17.20;99.90
1129;DHT22;553;51.038;7.216;2023-07-20T01:42:22;17.30;99.90
1129;DHT22;553;51.038;7.216;2023-07-20T01:44:51;17.20;99.90
1129;DHT22;553;51.038;7.216;2023-07-20T01:47:19;17.20;99.90
1129;DHT22;553;51.038;7.216;2023-07-20T01:49:46;17.30;99.90
1129;DHT22;553;51.038;7.216;2023-07-20T01:52:13;17.30;99.90
1129;DHT22;553;51.038;7.216;2023-07-20T01:54:39;17.30;99.90
1129;DHT22;553;51.038;7.216;2023-07-20T01:57:06;17.30;99.90
1129;DHT22;553;51.038;7.216;2023-07-20T01:59:33;17.40;99.90
1129;DHT22;553;51.038;7.216;2023-07-20T02:02:00;17.30;99.90
1129;DHT22;553;51.038;7.216;2023-07-20T02:04:26;17.30;99.90
1129;DHT22;553;51.038;7.216;2023-07-20T02:06:53;17.50;99.90
1129;DHT22;553;51.038;7.216;2023-07-20T02:09:20;17.60;99.90
1129;DHT22;553;51.038;7.216;2023-07-20T02:11:47;17.60;99.90
1129;DHT22;553;51.038;7.216;2023-07-20T02:14:13;17.60;99.90
1129;DHT22;553;51.038;7.216;2023-07-20T02:16:40;17.40;99.90
1129;DHT22;553;51.038;7.216;2023-07-20T02:19:07;17.30;99.90
1129;DHT22;553;51.038;7.216;2023-07-20T02:21:34;17.40;99.90
1129;DHT22;553;51.038;7.216;2023-07-20T02:24:01;17.40;99.90
1129;DHT22;553;51.038;7.216;2023-07-20T02:26:28;17.40;99.90
1129;DHT22;553;51.038;7.216;2023-07-20T02:28:54;17.50;99.90
1129;DHT22;553;51.038;7.216;2023-07-20T02:31:22;17.60;99.90
1129;DHT22;553;51.038;7.216;2023-07-20T02:33:48;17.50;99.90
1129;DHT22;553;51.038;7.216;2023-07-20T02:36:15;17.50;99.90
1129;DHT22;553;51.038;7.216;2023-07-20T02:38:45;17.60;99.90
1129;DHT22;553;51.038;7.216;2023-07-20T02:41:13;17.50;99.90
1129;DHT22;553;51.038;7.216;2023-07-20T02:43:40;17.50;99.90
1129;DHT22;553;51.038;7.216;2023-07-20T02:46:06;17.50;99.90
1129;DHT22;553;51.038;7.216;2023-07-20T02:48:33;17.40;99.90
1129;DHT22;553;51.038;7.216;2023-07-20T02:51:00;17.30;99.90
1129;DHT22;553;51.038;7.216;2023-07-20T02:53:27;17.20;99.90
1129;DHT22;553;51.038;7.216;2023-07-20T02:55:53;17.10;99.90
1129;DHT22;553;51.038;7.216;2023-07-20T02:58:20;17.20;99.90
1129;DHT22;553;51.038;7.216;2023-07-20T03:00:47;17.10;99.90
1129;DHT22;553;51.038;7.216;2023-07-20T03:03:14;17.10;99.90
1129;DHT22;553;51.038;7.216;2023-07-20T03:05:41;17.10;99.90
1129;DHT22;553;51.038;7.216;2023-07-20T03:08:08;17.10;99.90
1129;DHT22;553;51.038;7.216;2023-07-20T03:10:39;17.10;99.90
1129;DHT22;553;51.038;7.216;2023-07-20T03:13:07;17.10;99.90
1129;DHT22;553;51.038;7.216;2023-07-20T03:15:34;17.20;99.90
1129;DHT22;553;51.038;7.216;2023-07-20T03:18:01;17.20;99.90
1129;DHT22;553;51.038;7.216;2023-07-20T03:20:28;17.20;99.90
1129;DHT22;553;51.038;7.216;2023-07-20T03:22:55;17.10;99.90
1129;DHT22;553;51.038;7.216;2023-07-20T03:25:22;17.00;99.90
1129;DHT22;553;51.038;7.216;2023-07-20T03:27:50;17.00;99.90
1129;DHT22;553;51.038;7.216;2023-07-20T03:30:17;17.10;99.90
1129;DHT22;553;51.038;7.216;2023-07-20T03:32:44;17.10;99.90
1129;DHT22;553;51.038;7.216;2023-07-20T03:35:11;17.00;99.90
1129;DHT22;553;51.038;7.216;2023-07-20T03:37:38;17.10;99.90
1129;DHT22;553;51.038;7.216;2023-07-20T03:40:05;17.10;99.90
1129;DHT22;553;51.038;7.216;2023-07-20T03:42:34;17.10;99.90
1129;DHT22;553;51.038;7.216;2023-07-20T03:45:00;17.10;99.90
1129;DHT22;553;51.038;7.216;2023-07-20T03:47:27;17.10;99.90
1129;DHT22;553;51.038;7.216;2023-07-20T03:49:54;17.00;99.90
1129;DHT22;553;51.038;7.216;2023-07-20T03:52:21;16.90;99.90
1129;DHT22;553;51.038;7.216;2023-07-20T03:54:47;16.90;99.90
1129;DHT22;553;51.038;7.216;2023-07-20T03:57:14;17.00;99.90
1129;DHT22;553;51.038;7.216;2023-07-20T03:59:45;17.00;99.90
1129;DHT22;553;51.038;7.216;2023-07-20T04:02:11;17.00;99.90
1129;DHT22;553;51.038;7.216;2023-07-20T04:04:41;17.00;99.90
1129;DHT22;553;51.038;7.216;2023-07-20T04:07:08;16.90;99.90
1129;DHT22;553;51.038;7.216;2023-07-20T04:09:35;16.90;99.90
1129;DHT22;553;51.038;7.216;2023-07-20T04:12:02;16.90;99.90
1129;DHT22;553;51.038;7.216;2023-07-20T04:14:28;16.90;99.90
1129;DHT22;553;51.038;7.216;2023-07-20T04:16:55;16.80;99.90
1129;DHT22;553;51.038;7.216;2023-07-20T04:19:22;16.80;99.90
1129;DHT22;553;51.038;7.216;2023-07-20T04:21:49;16.90;99.90
1129;DHT22;553;51.038;7.216;2023-07-20T04:24:15;17.00;99.90
1129;DHT22;553;51.038;7.216;2023-07-20T04:26:42;16.90;99.90
1129;DHT22;553;51.038;7.216;2023-07-20T04:29:09;17.00;99.90
1129;DHT22;553;51.038;7.216;2023-07-20T04:31:39;16.90;99.90
1129;DHT22;553;51.038;7.216;2023-07-20T04:34:06;17.00;99.90
1129;DHT22;553;51.038;7.216;2023-07-20T04:36:34;17.00;99.90
1129;DHT22;553;51.038;7.216;2023-07-20T04:39:01;17.10;99.90
1129;DHT22;553;51.038;7.216;2023-07-20T04:41:34;17.10;99.90
1129;DHT22;553;51.038;7.216;2023-07-20T04:44:00;17.10;99.90
1129;DHT22;553;51.038;7.216;2023-07-20T04:46:29;17.20;99.90
1129;DHT22;553;51.038;7.216;2023-07-20T04:48:57;17.10;99.90
1129;DHT22;553;51.038;7.216;2023-07-20T04:51:26;17.00;99.90
1129;DHT22;553;51.038;7.216;2023-07-20T04:53:54;17.00;99.90
1129;DHT22;553;51.038;7.216;2023-07-20T04:56:22;17.10;99.90
1129;DHT22;553;51.038;7.216;2023-07-20T04:58:51;17.10;99.90
1129;DHT22;553;51.038;7.216;2023-07-20T05:01:18;17.10;99.90
1129;DHT22;553;51.038;7.216;2023-07-20T05:03:45;17.10;99.90
1129;DHT22;553;51.038;7.216;2023-07-20T05:06:13;17.10;99.90
1129;DHT22;553;51.038;7.216;2023-07-20T05:08:41;17.20;99.90
1129;DHT22;553;51.038;7.216;2023-07-20T05:11:08;17.20;99.90
1129;DHT22;553;51.038;7.216;2023-07-20T05:13:35;17.30;99.90
1129;DHT22;553;51.038;7.216;2023-07-20T05:16:02;17.40;99.90
1129;DHT22;553;51.038;7.216;2023-07-20T05:18:29;17.20;99.90
1129;DHT22;553;51.038;7.216;2023-07-20T05:20:56;17.10;99.90
1129;DHT22;553;51.038;7.216;2023-07-20T05:23:23;17.10;99.90
1129;DHT22;553;51.038;7.216;2023-07-20T05:25:57;17.10;99.90
1129;DHT22;553;51.038;7.216;2023-07-20T05:28:25;17.20;99.90
1129;DHT22;553;51.038;7.216;2023-07-20T05:30:53;17.20;99.90
1129;DHT22;553;51.038;7.216;2023-07-20T05:33:20;17.30;99.90
1129;DHT22;553;51.038;7.216;2023-07-20T05:35:47;17.30;99.90
1129;DHT22;553;51.038;7.216;2023-07-20T05:38:14;17.40;99.90
1129;DHT22;553;51.038;7.216;2023-07-20T05:40:42;17.40;99.90
1129;DHT22;553;51.038;7.216;2023-07-20T05:43:12;17.50;99.90
1129;DHT22;553;51.038;7.216;2023-07-20T05:45:42;17.40;99.90
1129;DHT22;553;51.038;7.216;2023-07-20T05:48:09;17.40;99.90
1129;DHT22;553;51.038;7.216;2023-07-20T05:50:43;17.50;99.90
1129;DHT22;553;51.038;7.216;2023-07-20T05:53:10;17.40;99.90
1129;DHT22;553;51.038;7.216;2023-07-20T05:55:37;17.40;99.90
1129;DHT22;553;51.038;7.216;2023-07-20T05:58:04;17.40;99.90
1129;DHT22;553;51.038;7.216;2023-07-20T06:00:31;17.40;99.90
1129;DHT22;553;51.038;7.216;2023-07-20T06:02:58;17.30;99.90
1129;DHT22;553;51.038;7.216;2023-07-20T06:05:25;17.40;99.90
1129;DHT22;553;51.038;7.216;2023-07-20T06:07:55;17.30;99.90
1129;DHT22;553;51.038;7.216;2023-07-20T06:10:24;17.30;99.90
1129;DHT22;553;51.038;7.216;2023-07-20T06:12:50;17.50;99.90
1129;DHT22;553;51.038;7.216;2023-07-20T06:15:30;17.60;99.90
1129;DHT22;553;51.038;7.216;2023-07-20T06:17:57;17.70;99.90
1129;DHT22;553;51.038;7.216;2023-07-20T06:20:25;17.70;99.90
1129;DHT22;553;51.038;7.216;2023-07-20T06:22:52;17.80;99.90
1129;DHT22;553;51.038;7.216;2023-07-20T06:25:19;17.90;99.90
1129;DHT22;553;51.038;7.216;2023-07-20T06:27:50;18.00;99.90
1129;DHT22;553;51.038;7.216;2023-07-20T06:30:18;18.00;99.90
1129;DHT22;553;51.038;7.216;2023-07-20T06:32:45;18.00;99.90
1129;DHT22;553;51.038;7.216;2023-07-20T06:35:12;18.10;99.90
1129;DHT22;553;51.038;7.216;2023-07-20T06:37:39;18.00;99.90
1129;DHT22;553;51.038;7.216;2023-07-20T06:40:06;18.20;99.90
1129;DHT22;553;51.038;7.216;2023-07-20T06:42:38;18.30;99.90
1129;DHT22;553;51.038;7.216;2023-07-20T06:45:08;18.30;99.90
1129;DHT22;553;51.038;7.216;2023-07-20T06:47:37;18.30;99.90
1129;DHT22;553;51.038;7.216;2023-07-20T06:50:05;18.30;99.90
1129;DHT22;553;51.038;7.216;2023-07-20T06:52:33;18.20;99.90
1129;DHT22;553;51.038;7.216;2023-07-20T06:55:00;18.20;99.90
1129;DHT22;553;51.038;7.216;2023-07-20T06:57:31;18.10;99.90
1129;DHT22;553;51.038;7.216;2023-07-20T06:59:58;18.20;99.90
1129;DHT22;553;51.038;7.216;2023-07-20T07:02:25;18.20;99.90
1129;DHT22;553;51.038;7.216;2023-07-20T07:04:51;18.20;99.90
1129;DHT22;553;51.038;7.216;2023-07-20T07:07:26;18.20;99.90
1129;DHT22;553;51.038;7.216;2023-07-20T07:09:53;18.20;99.90
1129;DHT22;553;51.038;7.216;2023-07-20T07:12:20;18.50;99.90
1129;DHT22;553;51.038;7.216;2023-07-20T07:14:47;18.70;99.90
1129;DHT22;553;51.038;7.216;2023-07-20T07:17:13;18.80;99.90
1129;DHT22;553;51.038;7.216;2023-07-20T07:19:45;18.70;99.90
1129;DHT22;553;51.038;7.216;2023-07-20T07:22:15;18.70;99.90
1129;DHT22;553;51.038;7.216;2023-07-20T07:24:42;19.00;99.70
1129;DHT22;553;51.038;7.216;2023-07-20T07:27:09;19.20;98.60
1129;DHT22;553;51.038;7.216;2023-07-20T07:29:36;19.20;99.40
1129;DHT22;553;51.038;7.216;2023-07-20T07:32:03;19.20;99.70
1129;DHT22;553;51.038;7.216;2023-07-20T07:34:29;19.30;99.00
1129;DHT22;553;51.038;7.216;2023-07-20T07:36:56;19.20;97.40
1129;DHT22;553;51.038;7.216;2023-07-20T07:39:23;19.30;96.30
1129;DHT22;553;51.038;7.216;2023-07-20T07:41:53;19.70;96.00
1129;DHT22;553;51.038;7.216;2023-07-20T07:44:20;19.90;94.80
1129;DHT22;553;51.038;7.216;2023-07-20T07:46:48;20.00;94.80
1129;DHT22;553;51.038;7.216;2023-07-20T07:49:16;20.10;93.10
1129;DHT22;553;51.038;7.216;2023-07-20T07:51:43;20.20;92.40
1129;DHT22;553;51.038;7.216;2023-07-20T07:54:09;20.40;93.60
1129;DHT22;553;51.038;7.216;2023-07-20T07:56:36;20.50;93.00
1129;DHT22;553;51.038;7.216;2023-07-20T07:59:03;20.50;92.90
1129;DHT22;553;51.038;7.216;2023-07-20T08:01:31;20.30;94.20
1129;DHT22;553;51.038;7.216;2023-07-20T08:03:58;19.90;94.30
1129;DHT22;553;51.038;7.216;2023-07-20T08:06:24;19.80;95.50
1129;DHT22;553;51.038;7.216;2023-07-20T08:08:52;19.90;94.60
1129;DHT22;553;51.038;7.216;2023-07-20T08:11:19;20.20;94.30
1129;DHT22;553;51.038;7.216;2023-07-20T08:13:46;20.40;93.50
1129;DHT22;553;51.038;7.216;2023-07-20T08:16:13;20.60;93.20
1129;DHT22;553;51.038;7.216;2023-07-20T08:18:40;20.50;92.70
1129;DHT22;553;51.038;7.216;2023-07-20T08:21:08;20.70;92.10
1129;DHT22;553;51.038;7.216;2023-07-20T08:23:34;21.00;89.90
1129;DHT22;553;51.038;7.216;2023-07-20T08:26:01;21.10;89.00
1129;DHT22;553;51.038;7.216;2023-07-20T08:28:28;21.50;88.80
1129;DHT22;553;51.038;7.216;2023-07-20T08:30:55;21.50;89.50
1129;DHT22;553;51.038;7.216;2023-07-20T08:33:23;21.40;89.00
1129;DHT22;553;51.038;7.216;2023-07-20T08:35:50;21.40;88.90
1129;DHT22;553;51.038;7.216;2023-07-20T08:38:17;21.30;89.10
1129;DHT22;553;51.038;7.216;2023-07-20T08:40:47;21.10;89.00
1129;DHT22;553;51.038;7.216;2023-07-20T08:43:15;21.40;88.00
1129;DHT22;553;51.038;7.216;2023-07-20T08:45:46;21.30;86.40
1129;DHT22;553;51.038;7.216;2023-07-20T08:48:15;21.20;85.10
1129;DHT22;553;51.038;7.216;2023-07-20T08:50:43;21.00;85.40
1129;DHT22;553;51.038;7.216;2023-07-20T08:53:12;20.90;87.90
1129;DHT22;553;51.038;7.216;2023-07-20T08:55:40;20.90;88.20
1129;DHT22;553;51.038;7.216;2023-07-20T08:58:12;20.90;88.00
1129;DHT22;553;51.038;7.216;2023-07-20T09:00:39;20.90;88.20
1129;DHT22;553;51.038;7.216;2023-07-20T09:03:08;20.80;88.80
1129;DHT22;553;51.038;7.216;2023-07-20T09:05:35;20.60;89.50
1129;DHT22;553;51.038;7.216;2023-07-20T09:08:02;20.90;89.70
1129;DHT22;553;51.038;7.216;2023-07-20T09:10:30;21.40;88.50
1129;DHT22;553;51.038;7.216;2023-07-20T09:12:57;21.80;87.60
1129;DHT22;553;51.038;7.216;2023-07-20T09:15:23;21.90;86.80
1129;DHT22;553;51.038;7.216;2023-07-20T09:17:51;21.90;85.70
1129;DHT22;553;51.038;7.216;2023-07-20T09:20:20;22.10;82.30
1129;DHT22;553;51.038;7.216;2023-07-20T09:22:50;22.30;81.40
1129;DHT22;553;51.038;7.216;2023-07-20T09:25:19;22.60;81.30
1129;DHT22;553;51.038;7.216;2023-07-20T09:27:51;22.50;81.00
1129;DHT22;553;51.038;7.216;2023-07-20T09:30:18;22.30;82.70
1129;DHT22;553;51.038;7.216;2023-07-20T09:32:49;22.60;81.00
1129;DHT22;553;51.038;7.216;2023-07-20T09:35:21;22.70;80.50
1129;DHT22;553;51.038;7.216;2023-07-20T09:38:00;23.00;80.40
1129;DHT22;553;51.038;7.216;2023-07-20T09:40:30;23.30;79.50
1129;DHT22;553;51.038;7.216;2023-07-20T09:43:10;23.20;79.70
1129;DHT22;553;51.038;7.216;2023-07-20T09:45:42;23.10;79.60
1129;DHT22;553;51.038;7.216;2023-07-20T09:48:12;23.50;79.10
1129;DHT22;553;51.038;7.216;2023-07-20T09:50:48;23.60;77.70
1129;DHT22;553;51.038;7.216;2023-07-20T09:53:16;23.60;75.60
1129;DHT22;553;51.038;7.216;2023-07-20T09:55:48;23.60;74.20
1129;DHT22;553;51.038;7.216;2023-07-20T09:58:16;23.60;75.50
1129;DHT22;553;51.038;7.216;2023-07-20T10:00:44;23.10;77.90
1129;DHT22;553;51.038;7.216;2023-07-20T10:03:21;23.00;79.40
1129;DHT22;553;51.038;7.216;2023-07-20T10:05:54;23.50;78.10
1129;DHT22;553;51.038;7.216;2023-07-20T10:08:29;23.60;77.00
1129;DHT22;553;51.038;7.216;2023-07-20T10:11:00;23.70;76.40
1129;DHT22;553;51.038;7.216;2023-07-20T10:13:29;23.60;75.90
1129;DHT22;553;51.038;7.216;2023-07-20T10:16:02;23.60;76.40
1129;DHT22;553;51.038;7.216;2023-07-20T10:18:36;23.40;76.60
1129;DHT22;553;51.038;7.216;2023-07-20T10:21:06;23.30;77.10
1129;DHT22;553;51.038;7.216;2023-07-20T10:23:39;23.30;77.40
1129;DHT22;553;51.038;7.216;2023-07-20T10:26:06;23.40;77.70
1129;DHT22;553;51.038;7.216;2023-07-20T10:28:33;23.60;77.60
1129;DHT22;553;51.038;7.216;2023-07-20T10:31:00;23.70;77.00
1129;DHT22;553;51.038;7.216;2023-07-20T10:33:27;23.80;76.80
1129;DHT22;553;51.038;7.216;2023-07-20T10:36:00;23.90;75.60
1129;DHT22;553;51.038;7.216;2023-07-20T10:38:57;23.60;75.50
1129;DHT22;553;51.038;7.216;2023-07-20T10:41:34;23.30;75.70
1129;DHT22;553;51.038;7.216;2023-07-20T10:44:06;23.30;76.20
1129;DHT22;553;51.038;7.216;2023-07-20T10:49:08;23.00;76.30
1129;DHT22;553;51.038;7.216;2023-07-20T10:51:46;23.10;75.20
1129;DHT22;553;51.038;7.216;2023-07-20T10:56:49;23.40;76.90
1129;DHT22;553;51.038;7.216;2023-07-20T11:01:55;23.40;75.60
1129;DHT22;553;51.038;7.216;2023-07-20T11:07:08;23.00;76.30
1129;DHT22;553;51.038;7.216;2023-07-20T11:09:35;22.90;75.60
1129;DHT22;553;51.038;7.216;2023-07-20T11:17:13;22.80;77.20
1129;DHT22;553;51.038;7.216;2023-07-20T11:19:40;22.80;76.80
1129;DHT22;553;51.038;7.216;2023-07-20T11:22:10;23.10;76.70
1129;DHT22;553;51.038;7.216;2023-07-20T11:24:40;23.00;76.70
1129;DHT22;553;51.038;7.216;2023-07-20T11:27:07;23.00;76.00
1129;DHT22;553;51.038;7.216;2023-07-20T11:29:35;23.10;75.50
1129;DHT22;553;51.038;7.216;2023-07-20T11:32:03;23.00;73.50
1129;DHT22;553;51.038;7.216;2023-07-20T11:34:32;22.90;73.50
1129;DHT22;553;51.038;7.216;2023-07-20T11:36:59;23.20;73.40
1129;DHT22;553;51.038;7.216;2023-07-20T11:39:29;23.50;72.20
1129;DHT22;553;51.038;7.216;2023-07-20T11:41:57;23.60;72.90
1129;DHT22;553;51.038;7.216;2023-07-20T11:44:26;23.60;71.50
1129;DHT22;553;51.038;7.216;2023-07-20T11:47:07;23.40;70.90
1129;DHT22;553;51.038;7.216;2023-07-20T11:49:36;23.30;72.60
1129;DHT22;553;51.038;7.216;2023-07-20T11:52:08;23.50;72.20
1129;DHT22;553;51.038;7.216;2023-07-20T11:54:37;23.60;72.20
1129;DHT22;553;51.038;7.216;2023-07-20T11:57:05;23.60;73.50
1129;DHT22;553;51.038;7.216;2023-07-20T11:59:32;23.70;72.90
1129;DHT22;553;51.038;7.216;2023-07-20T12:02:03;23.60;72.50
1129;DHT22;553;51.038;7.216;2023-07-20T12:04:33;23.50;72.90
1129;DHT22;553;51.038;7.216;2023-07-20T12:07:00;23.40;73.30
1129;DHT22;553;51.038;7.216;2023-07-20T12:09:27;23.30;73.80
1129;DHT22;553;51.038;7.216;2023-07-20T12:12:12;23.50;73.40
1129;DHT22;553;51.038;7.216;2023-07-20T12:14:39;23.60;72.80
1129;DHT22;553;51.038;7.216;2023-07-20T12:17:08;23.60;72.70
1129;DHT22;553;51.038;7.216;2023-07-20T12:19:38;23.60;72.40
1129;DHT22;553;51.038;7.216;2023-07-20T12:22:06;23.60;72.40
1129;DHT22;553;51.038;7.216;2023-07-20T12:24:34;23.60;72.30
1129;DHT22;553;51.038;7.216;2023-07-20T12:27:01;23.60;71.40
1129;DHT22;553;51.038;7.216;2023-07-20T12:29:28;23.50;71.00
1129;DHT22;553;51.038;7.216;2023-07-20T12:31:55;23.60;69.60
1129;DHT22;553;51.038;7.216;2023-07-20T12:34:21;23.50;70.50
1129;DHT22;553;51.038;7.216;2023-07-20T12:36:48;23.40;71.40
1129;DHT22;553;51.038;7.216;2023-07-20T12:39:15;23.40;72.00
1129;DHT22;553;51.038;7.216;2023-07-20T12:41:42;23.50;72.50
1129;DHT22;553;51.038;7.216;2023-07-20T12:44:08;23.40;72.30
1129;DHT22;553;51.038;7.216;2023-07-20T12:46:35;23.40;72.20
1129;DHT22;553;51.038;7.216;2023-07-20T12:49:04;23.30;72.80
1129;DHT22;553;51.038;7.216;2023-07-20T12:51:30;23.20;72.90
1129;DHT22;553;51.038;7.216;2023-07-20T12:53:57;23.30;72.90
1129;DHT22;553;51.038;7.216;2023-07-20T12:56:24;23.30;72.10
1129;DHT22;553;51.038;7.216;2023-07-20T12:58:54;23.30;71.80
1129;DHT22;553;51.038;7.216;2023-07-20T13:01:20;23.30;72.30
1129;DHT22;553;51.038;7.216;2023-07-20T13:03:47;23.30;72.00
1129;DHT22;553;51.038;7.216;2023-07-20T13:06:17;23.20;71.90
1129;DHT22;553;51.038;7.216;2023-07-20T13:08:47;23.10;72.00
1129;DHT22;553;51.038;7.216;2023-07-20T13:11:13;23.10;72.30
1129;DHT22;553;51.038;7.216;2023-07-20T13:13:40;23.20;71.70
1129;DHT22;553;51.038;7.216;2023-07-20T13:16:07;23.40;71.40
1129;DHT22;553;51.038;7.216;2023-07-20T13:18:33;23.40;71.80
1129;DHT22;553;51.038;7.216;2023-07-20T13:21:01;23.50;71.20
1129;DHT22;553;51.038;7.216;2023-07-20T13:23:28;23.30;70.50
1129;DHT22;553;51.038;7.216;2023-07-20T13:25:55;23.20;70.60
1129;DHT22;553;51.038;7.216;2023-07-20T13:28:22;23.10;70.20
1129;DHT22;553;51.038;7.216;2023-07-20T13:30:49;23.10;68.90
1129;DHT22;553;51.038;7.216;2023-07-20T13:33:15;23.10;70.10
1129;DHT22;553;51.038;7.216;2023-07-20T13:35:44;23.30;70.80
1129;DHT22;553;51.038;7.216;2023-07-20T13:38:14;23.40;70.60
1129;DHT22;553;51.038;7.216;2023-07-20T13:40:41;23.50;70.10
1129;DHT22;553;51.038;7.216;2023-07-20T13:43:09;23.30;70.20
1129;DHT22;553;51.038;7.216;2023-07-20T13:45:35;23.40;70.70
1129;DHT22;553;51.038;7.216;2023-07-20T13:48:02;23.60;70.60
1129;DHT22;553;51.038;7.216;2023-07-20T13:50:32;23.50;70.60
1129;DHT22;553;51.038;7.216;2023-07-20T13:53:02;23.50;70.50
1129;DHT22;553;51.038;7.216;2023-07-20T13:55:32;23.70;69.70
1129;DHT22;553;51.038;7.216;2023-07-20T13:58:03;23.50;69.60
1129;DHT22;553;51.038;7.216;2023-07-20T14:00:30;23.30;69.90
1129;DHT22;553;51.038;7.216;2023-07-20T14:03:00;23.40;70.70
1129;DHT22;553;51.038;7.216;2023-07-20T14:05:30;23.60;70.40
1129;DHT22;553;51.038;7.216;2023-07-20T14:07:59;23.70;70.50
1129;DHT22;553;51.038;7.216;2023-07-20T14:10:26;23.70;69.90
1129;DHT22;553;51.038;7.216;2023-07-20T14:12:53;23.70;69.30
1129;DHT22;553;51.038;7.216;2023-07-20T14:15:19;23.90;69.10
1129;DHT22;553;51.038;7.216;2023-07-20T14:17:46;23.90;68.90
1129;DHT22;553;51.038;7.216;2023-07-20T14:20:13;23.70;69.80
1129;DHT22;553;51.038;7.216;2023-07-20T14:22:43;23.90;68.90
1129;DHT22;553;51.038;7.216;2023-07-20T14:25:10;23.60;69.40
1129;DHT22;553;51.038;7.216;2023-07-20T14:27:37;23.80;70.00
1129;DHT22;553;51.038;7.216;2023-07-20T14:30:05;23.70;69.80
1129;DHT22;553;51.038;7.216;2023-07-20T14:32:32;23.80;69.30
1129;DHT22;553;51.038;7.216;2023-07-20T14:35:00;23.90;70.00
1129;DHT22;553;51.038;7.216;2023-07-20T14:37:27;23.90;69.20
1129;DHT22;553;51.038;7.216;2023-07-20T14:39:55;24.00;69.30
1129;DHT22;553;51.038;7.216;2023-07-20T14:42:22;23.90;69.60
1129;DHT22;553;51.038;7.216;2023-07-20T14:44:48;23.80;68.60
1129;DHT22;553;51.038;7.216;2023-07-20T14:47:15;23.90;67.20
1129;DHT22;553;51.038;7.216;2023-07-20T14:49:42;23.90;67.60
1129;DHT22;553;51.038;7.216;2023-07-20T14:52:09;23.90;68.40
1129;DHT22;553;51.038;7.216;2023-07-20T14:54:39;23.90;68.80
1129;DHT22;553;51.038;7.216;2023-07-20T14:57:06;24.00;68.70
1129;DHT22;553;51.038;7.216;2023-07-20T14:59:40;24.00;68.10
1129;DHT22;553;51.038;7.216;2023-07-20T15:02:11;24.10;68.20
1129;DHT22;553;51.038;7.216;2023-07-20T15:04:44;24.20;68.30
1129;DHT22;553;51.038;7.216;2023-07-20T15:07:11;24.40;68.50
1129;DHT22;553;51.038;7.216;2023-07-20T15:09:38;24.50;67.10
1129;DHT22;553;51.038;7.216;2023-07-20T15:12:06;24.50;67.60
1129;DHT22;553;51.038;7.216;2023-07-20T15:14:33;24.50;67.70
1129;DHT22;553;51.038;7.216;2023-07-20T15:17:00;24.50;67.80
1129;DHT22;553;51.038;7.216;2023-07-20T15:19:28;24.30;67.90
1129;DHT22;553;51.038;7.216;2023-07-20T15:21:55;24.10;68.70
1129;DHT22;553;51.038;7.216;2023-07-20T15:24:21;24.10;68.40
1129;DHT22;553;51.038;7.216;2023-07-20T15:26:48;24.00;69.40
1129;DHT22;553;51.038;7.216;2023-07-20T15:29:15;24.10;69.80
1129;DHT22;553;51.038;7.216;2023-07-20T15:31:45;24.20;68.90
1129;DHT22;553;51.038;7.216;2023-07-20T15:34:14;24.20;69.20
1129;DHT22;553;51.038;7.216;2023-07-20T15:36:42;24.10;69.10
1129;DHT22;553;51.038;7.216;2023-07-20T15:39:08;24.10;69.20
1129;DHT22;553;51.038;7.216;2023-07-20T15:41:35;24.20;69.10
1129;DHT22;553;51.038;7.216;2023-07-20T15:44:02;24.20;69.50
1129;DHT22;553;51.038;7.216;2023-07-20T15:46:45;24.10;69.50
1129;DHT22;553;51.038;7.216;2023-07-20T15:49:15;24.00;69.70
1129;DHT22;553;51.038;7.216;2023-07-20T15:51:42;24.00;70.10
1129;DHT22;553;51.038;7.216;2023-07-20T15:54:09;24.00;70.30
1129;DHT22;553;51.038;7.216;2023-07-20T15:56:38;23.90;70.40
1129;DHT22;553;51.038;7.216;2023-07-20T15:59:06;23.90;70.20
1129;DHT22;553;51.038;7.216;2023-07-20T16:01:33;23.90;69.70
1129;DHT22;553;51.038;7.216;2023-07-20T16:04:00;23.90;69.60
1129;DHT22;553;51.038;7.216;2023-07-20T16:06:27;23.90;69.00
1129;DHT22;553;51.038;7.216;2023-07-20T16:08:55;23.90;68.70
1129;DHT22;553;51.038;7.216;2023-07-20T16:11:21;24.00;69.20
1129;DHT22;553;51.038;7.216;2023-07-20T16:13:52;24.00;68.40
1129;DHT22;553;51.038;7.216;2023-07-20T16:16:20;23.80;68.70
1129;DHT22;553;51.038;7.216;2023-07-20T16:18:49;23.80;69.60
1129;DHT22;553;51.038;7.216;2023-07-20T16:21:20;23.70;68.90
1129;DHT22;553;51.038;7.216;2023-07-20T16:23:50;23.60;68.80
1129;DHT22;553;51.038;7.216;2023-07-20T16:26:18;23.50;69.50
1129;DHT22;553;51.038;7.216;2023-07-20T16:28:44;23.60;70.20
1129;DHT22;553;51.038;7.216;2023-07-20T16:31:13;23.80;69.30
1129;DHT22;553;51.038;7.216;2023-07-20T16:33:41;23.90;69.50
1129;DHT22;553;51.038;7.216;2023-07-20T16:36:14;23.90;69.10
1129;DHT22;553;51.038;7.216;2023-07-20T16:38:42;23.90;69.20
1129;DHT22;553;51.038;7.216;2023-07-20T16:41:10;24.00;69.30
1129;DHT22;553;51.038;7.216;2023-07-20T16:43:39;24.00;69.40
1129;DHT22;553;51.038;7.216;2023-07-20T16:46:09;24.00;68.70
1129;DHT22;553;51.038;7.216;2023-07-20T16:48:39;23.80;69.20